createdAt,value
2022-12-12T00:10:26.410Z,0.03
2022-12-12T00:17:44.576Z,0.02
2022-12-12T00:44:50.311Z,0.03
2022-12-12T01:22:48.582Z,0.04
2022-12-12T01:25:16.039Z,0.03
2022-12-12T01:42:08.372Z,0.02
2022-12-12T01:44:48.269Z,0.03
2022-12-12T01:49:25.512Z,0.02
2022-12-12T01:54:09.180Z,0.03
2022-12-12T01:56:41.165Z,0.02
2022-12-12T02:01:02.719Z,0.03
2022-12-12T03:15:36.119Z,0.02
2022-12-12T03:17:40.533Z,0.03
2022-12-12T03:20:33.633Z,0.02
2022-12-12T03:36:03.441Z,0.03
2022-12-12T05:03:49.345Z,0.04
2022-12-12T05:09:21.583Z,0.05
2022-12-12T05:11:46.512Z,0.04
2022-12-12T05:19:42.075Z,0.05
2022-12-12T05:22:13.241Z,0.04
2022-12-12T05:32:01.753Z,0.03
2022-12-12T05:36:34.028Z,0.04
2022-12-12T05:39:31.565Z,0.03
2022-12-12T05:46:59.581Z,0.04
2022-12-12T05:54:25.494Z,0.05
2022-12-12T05:56:46.775Z,0.06
2022-12-12T06:01:49.875Z,0.05
2022-12-12T06:04:31.521Z,0.06
2022-12-12T06:06:59.081Z,0.08
2022-12-12T06:09:12.541Z,0.07
2022-12-12T06:26:32.779Z,0.09
2022-12-12T06:31:11.971Z,0.11
2022-12-12T06:33:07.629Z,0.14
2022-12-12T06:35:53.685Z,0.2
2022-12-12T06:38:25.702Z,0.25
2022-12-12T06:40:43.122Z,0.29
2022-12-12T06:42:48.660Z,0.38
2022-12-12T06:45:39.242Z,0.5
2022-12-12T06:48:17.280Z,0.68
2022-12-12T06:50:41.289Z,0.98
2022-12-12T06:52:51.369Z,1.26
2022-12-12T06:55:49.933Z,1.83
2022-12-12T06:58:34.277Z,2.78
2022-12-12T07:01:04.392Z,3.74
2022-12-12T07:03:20.590Z,4.67
2022-12-12T07:05:22.534Z,5.68
2022-12-12T07:08:13.003Z,7.3
2022-12-12T07:10:49.473Z,9.1
2022-12-12T07:13:11.908Z,11.39
2022-12-12T07:15:20.128Z,13.53
2022-12-12T07:18:16.785Z,19.22
2022-12-12T07:20:59.398Z,24.39
2022-12-12T07:23:27.868Z,25.75
2022-12-12T07:25:42.060Z,26.59
2022-12-12T07:27:42.347Z,28.15
2022-12-12T07:30:31.111Z,33.13
2022-12-12T07:33:05.230Z,40.19
2022-12-12T07:35:25.779Z,50.08
2022-12-12T07:37:32.100Z,59.52
2022-12-12T07:40:26.895Z,72.96
2022-12-12T07:43:07.738Z,94.96
2022-12-12T07:45:34.386Z,118.56
2022-12-12T07:47:46.827Z,139.72
2022-12-12T07:49:45.310Z,155.36
2022-12-12T07:52:32.304Z,166
2022-12-12T07:55:04.999Z,177.9
2022-12-12T07:57:23.551Z,181.3
2022-12-12T07:59:28.171Z,185.3
2022-12-12T08:02:21.346Z,197.2
2022-12-12T08:05:00.437Z,211.8
2022-12-12T08:07:25.238Z,220
2022-12-12T08:09:35.970Z,214.4
2022-12-12T08:12:35.256Z,175
2022-12-12T08:15:20.465Z,145.08
2022-12-12T08:17:51.450Z,137.48
2022-12-12T08:20:08.290Z,130.84
2022-12-12T08:22:11.168Z,127.68
2022-12-12T08:25:02.106Z,130.8
2022-12-12T08:27:39.161Z,147.16
2022-12-12T08:30:02.093Z,169.4
2022-12-12T08:32:11.037Z,188
2022-12-12T08:35:08.484Z,208.6
2022-12-12T08:37:51.733Z,226.3
2022-12-12T08:40:21.089Z,247
2022-12-12T08:42:36.205Z,267.2
2022-12-12T08:44:37.144Z,276.9
2022-12-12T08:47:26.800Z,252.1
2022-12-12T08:50:02.276Z,216.2
2022-12-12T08:52:23.466Z,162.6
2022-12-12T08:54:30.774Z,131.04
2022-12-12T08:57:26.465Z,125.72
2022-12-12T09:00:08.010Z,135.6
2022-12-12T09:02:35.514Z,164.5
2022-12-12T09:04:48.838Z,212.8
2022-12-12T09:06:48.001Z,250.8
2022-12-12T09:09:35.638Z,272.7
2022-12-12T09:12:09.344Z,280.9
2022-12-12T09:14:28.891Z,282
2022-12-12T09:16:33.842Z,282.7
2022-12-12T09:19:27.769Z,251.9
2022-12-12T09:22:07.581Z,213.8
2022-12-12T09:24:33.189Z,192.1
2022-12-12T09:26:44.851Z,196.3
2022-12-12T09:28:42.345Z,209.4
2022-12-12T09:31:28.322Z,282
2022-12-12T09:34:00.110Z,388.4
2022-12-12T09:36:17.897Z,376.9
2022-12-12T09:38:21.495Z,405.4
2022-12-12T09:41:13.543Z,421.1
2022-12-12T09:43:51.697Z,433.7
2022-12-12T09:46:15.676Z,423.6
2022-12-12T09:48:25.392Z,483.2
2022-12-12T09:51:23.826Z,575.3
2022-12-12T09:54:08.027Z,626.5
2022-12-12T09:56:38.090Z,637.6
2022-12-12T09:58:56.625Z,623.5
2022-12-12T10:00:55.818Z,717.4
2022-12-12T10:03:46.173Z,840.3
2022-12-12T10:06:36.818Z,771.5
2022-12-12T10:08:44.042Z,739.2
2022-12-12T10:10:51.874Z,708.1
2022-12-12T10:13:48.207Z,750
2022-12-12T10:16:31.009Z,649.1
2022-12-12T10:18:58.819Z,553.2
2022-12-12T10:21:12.814Z,583.3
2022-12-12T10:23:12.891Z,590.8
2022-12-12T10:26:01.472Z,574.2
2022-12-12T10:28:35.849Z,547.8
2022-12-12T10:30:55.996Z,532.4
2022-12-12T10:33:02.202Z,530.2
2022-12-12T10:35:56.915Z,652.3
2022-12-12T10:38:37.664Z,759.3
2022-12-12T10:41:04.083Z,814.4
2022-12-12T10:43:16.364Z,800.3
2022-12-12T10:45:14.836Z,747.2
2022-12-12T10:48:01.405Z,726.7
2022-12-12T10:50:34.130Z,675.2
2022-12-12T10:52:52.598Z,691.2
2022-12-12T10:54:57.154Z,713.6
2022-12-12T10:57:50.114Z,680.9
2022-12-12T11:00:28.577Z,656.3
2022-12-12T11:02:56.788Z,649.2
2022-12-12T11:05:03.825Z,659.8
2022-12-12T11:08:03.083Z,670
2022-12-12T11:10:47.942Z,695.3
2022-12-12T11:13:18.943Z,705.2
2022-12-12T11:15:35.736Z,734.7
2022-12-12T11:17:38.335Z,742
2022-12-12T11:20:29.623Z,727
2022-12-12T11:23:06.713Z,730.2
2022-12-12T11:25:29.621Z,712
2022-12-12T11:27:38.528Z,680
2022-12-12T11:30:35.970Z,630.7
2022-12-12T11:33:19.195Z,671.6
2022-12-12T11:35:48.200Z,710
2022-12-12T11:38:03.268Z,699.5
2022-12-12T11:40:04.228Z,692.4
2022-12-12T11:42:53.403Z,709.4
2022-12-12T11:45:28.896Z,643.6
2022-12-12T11:47:50.108Z,631.2
2022-12-12T11:49:57.176Z,696
2022-12-12T11:52:52.551Z,725.1
2022-12-12T11:55:34.088Z,730.8
2022-12-12T11:58:03.752Z,732.1
2022-12-12T12:00:14.535Z,702.4
2022-12-12T12:02:13.710Z,680.3
2022-12-12T12:05:01.325Z,647
2022-12-12T12:07:34.837Z,579.2
2022-12-12T12:09:54.279Z,532.6
2022-12-12T12:11:59.592Z,523.6
2022-12-12T12:14:53.443Z,550
2022-12-12T12:17:33.234Z,545.9
2022-12-12T12:19:58.881Z,533.4
2022-12-12T12:22:10.346Z,527.6
2022-12-12T12:24:07.794Z,535
2022-12-12T12:26:53.652Z,534.5
2022-12-12T12:29:25.358Z,532.9
2022-12-12T12:31:42.851Z,542.8
2022-12-12T12:33:46.401Z,550.2
2022-12-12T12:36:38.391Z,553.6
2022-12-12T12:39:16.213Z,542
2022-12-12T12:41:40.103Z,555.8
2022-12-12T12:43:49.410Z,558
2022-12-12T12:46:47.551Z,555.8
2022-12-12T12:49:31.715Z,521.6
2022-12-12T12:52:01.679Z,509.1
2022-12-12T12:54:17.436Z,501.2
2022-12-12T12:56:23.669Z,491.2
2022-12-12T12:59:09.592Z,476.6
2022-12-12T13:01:45.955Z,479.6
2022-12-12T13:04:07.523Z,482.7
2022-12-12T13:06:15.449Z,490.5
2022-12-12T13:09:11.876Z,491.5
2022-12-12T13:11:54.090Z,496
2022-12-12T13:14:25.604Z,496.6
2022-12-12T13:16:36.480Z,500.1
2022-12-12T13:18:44.992Z,493.6
2022-12-12T13:21:24.877Z,484.6
2022-12-12T13:23:59.254Z,476.3
2022-12-12T13:26:19.373Z,482.2
2022-12-12T13:28:25.639Z,490.5
2022-12-12T13:31:20.347Z,492.4
2022-12-12T13:34:00.826Z,485.7
2022-12-12T13:36:29.837Z,487.5
2022-12-12T13:38:39.095Z,478.5
2022-12-12T13:40:37.282Z,474.7
2022-12-12T13:43:23.927Z,470.2
2022-12-12T13:45:56.641Z,448.4
2022-12-12T13:48:15.084Z,430.5
2022-12-12T13:50:19.417Z,428
2022-12-12T13:53:12.489Z,430.7
2022-12-12T13:55:51.331Z,424.8
2022-12-12T13:58:16.023Z,409.7
2022-12-12T14:00:26.713Z,394
2022-12-12T14:03:25.836Z,379.2
2022-12-12T14:06:10.707Z,358.8
2022-12-12T14:08:41.439Z,354.2
2022-12-12T14:10:58.238Z,359.8
2022-12-12T14:13:00.820Z,359.3
2022-12-12T14:15:51.909Z,345.1
2022-12-12T14:18:30.402Z,340.6
2022-12-12T14:20:51.930Z,328
2022-12-12T14:23:00.609Z,311.6
2022-12-12T14:25:58.047Z,301.6
2022-12-12T14:28:40.840Z,295.1
2022-12-12T14:31:09.903Z,286.6
2022-12-12T14:33:24.771Z,270.2
2022-12-12T14:35:25.486Z,254.7
2022-12-12T14:38:15.064Z,229.7
2022-12-12T14:40:49.901Z,206.3
2022-12-12T14:43:16.121Z,194.5
2022-12-12T14:45:17.907Z,182.1
2022-12-12T14:48:13.358Z,166.6
2022-12-12T14:50:54.755Z,148.84
2022-12-12T14:53:21.999Z,136.16
2022-12-12T14:55:35.053Z,136.36
2022-12-12T14:57:34.181Z,133.2
2022-12-12T15:00:21.738Z,123.56
2022-12-12T15:02:36.206Z,115.04
2022-12-12T15:04:36.108Z,106.36
2022-12-12T15:07:24.662Z,97.36
2022-12-12T15:09:59.347Z,84.44
2022-12-12T15:12:19.807Z,76.26
2022-12-12T15:14:26.051Z,65.32
2022-12-12T15:17:21.054Z,53.06
2022-12-12T15:20:01.429Z,45.38
2022-12-12T15:22:27.989Z,37.99
2022-12-12T15:24:40.584Z,31.4
2022-12-12T15:26:39.016Z,25.92
2022-12-12T15:29:25.869Z,21.36
2022-12-12T15:31:58.720Z,16.04
2022-12-12T15:34:17.285Z,12.79
2022-12-12T15:36:21.844Z,9.47
2022-12-12T15:39:15.049Z,6.74
2022-12-12T15:41:53.970Z,4.25
2022-12-12T15:44:18.855Z,2.91
2022-12-12T15:46:29.549Z,2.15
2022-12-12T15:49:28.889Z,1.34
2022-12-12T15:52:14.058Z,0.83
2022-12-12T15:54:45.160Z,0.61
2022-12-12T15:57:02.076Z,0.46
2022-12-12T15:59:04.934Z,0.4
2022-12-12T16:01:56.267Z,0.31
2022-12-12T16:04:33.650Z,0.27
2022-12-12T16:06:56.543Z,0.21
2022-12-12T16:09:05.533Z,0.2
2022-12-12T16:12:02.543Z,0.19
2022-12-12T16:14:46.122Z,0.18
2022-12-12T16:19:30.356Z,0.17
2022-12-12T16:24:21.242Z,0.15
2022-12-12T16:26:56.701Z,0.16
2022-12-12T16:31:25.376Z,0.17
2022-12-12T16:34:21.098Z,0.16
2022-12-12T16:37:02.701Z,0.15
2022-12-12T16:41:43.816Z,0.17
2022-12-12T16:43:43.156Z,0.16
2022-12-12T16:46:31.063Z,0.15
2022-12-12T16:51:24.381Z,0.13
2022-12-12T16:53:30.019Z,0.11
2022-12-12T16:56:24.153Z,0.12
2022-12-12T16:59:04.030Z,0.11
2022-12-12T17:01:32.270Z,0.13
2022-12-12T17:03:41.153Z,0.14
2022-12-12T17:08:24.658Z,0.13
2022-12-12T17:15:18.095Z,0.12
2022-12-12T17:18:10.484Z,0.11
2022-12-12T17:20:48.654Z,0.1
2022-12-12T17:28:21.018Z,0.11
2022-12-12T17:31:05.227Z,0.09
2022-12-12T17:35:51.380Z,0.08
2022-12-12T17:37:53.311Z,0.09
2022-12-12T17:43:20.178Z,0.1
2022-12-12T17:47:50.611Z,0.08
2022-12-12T18:00:12.549Z,0.09
2022-12-12T18:03:01.103Z,0.06
2022-12-12T18:05:35.604Z,0.07
2022-12-12T18:07:56.185Z,0.05
2022-12-12T18:10:02.537Z,0.06
2022-12-12T18:12:57.445Z,0.07
2022-12-12T18:15:38.320Z,0.06
2022-12-12T18:18:04.976Z,0.07
2022-12-12T18:20:17.704Z,0.06
2022-12-12T18:22:15.973Z,0.05
2022-12-12T18:29:54.278Z,0.06
2022-12-12T18:34:52.048Z,0.08
2022-12-12T18:39:55.945Z,0.05
2022-12-12T18:47:50.837Z,0.04
2022-12-12T18:50:21.887Z,0.17
2022-12-12T18:52:38.700Z,0.06
2022-12-12T19:00:10.109Z,0.05
2022-12-12T19:02:33.119Z,0.04
2022-12-12T19:07:39.584Z,0.05
2022-12-12T19:17:08.462Z,0.04
2022-12-12T19:27:02.253Z,0.05
2022-12-12T19:29:58.149Z,0.04
2022-12-12T20:01:15.343Z,0.05
2022-12-12T20:04:01.370Z,0.04
2022-12-12T20:08:51.179Z,0.05
2022-12-12T20:10:54.926Z,0.04
2022-12-12T20:53:49.128Z,0.05
2022-12-12T20:55:49.382Z,0.04
2022-12-12T22:06:00.763Z,0.03
2022-12-12T23:44:42.839Z,0.02
